Time;durP1;ratioP1;P1;durP2;ratioP2;P2;SDS_P1;SDS_P2;PMS_P1;PMS_P2;Temp;Humidity;BMP_temperature;BMP_pressure;BME280_temperature;BME280_humidity;BME280_pressure;Samples;Min_cycle;Max_cycle;Signal;HPM_P1;HPM_P2
2022/03/22 00:00:30;;;;;;;48.08;34.78;;;4.30;99.90;;;;;;5013311;28;20111;-84
2022/03/22 00:03:07;;;;;;;50.15;36.42;;;4.30;99.90;;;;;;5013423;28;20044;-83
2022/03/22 00:05:33;;;;;;;56.22;36.08;;;5.00;99.90;;;;;;5013733;28;20102;-85
2022/03/22 00:08:00;;;;;;;49.13;34.97;;;4.30;99.90;;;;;;5012839;28;20151;-84
2022/03/22 00:10:28;;;;;;;47.35;33.22;;;4.30;99.90;;;;;;5013364;28;20041;-84
2022/03/22 00:12:54;;;;;;;49.67;34.10;;;5.30;99.90;;;;;;4999584;28;20125;-83
2022/03/22 00:15:19;;;;;;;52.67;35.63;;;5.20;99.90;;;;;;4973519;28;20148;-83
2022/03/22 00:17:45;;;;;;;48.88;34.65;;;5.10;99.90;;;;;;4973929;28;20042;-83
2022/03/22 00:20:11;;;;;;;49.92;34.78;;;5.50;99.90;;;;;;4973860;28;20084;-84
2022/03/22 00:22:38;;;;;;;51.92;33.78;;;4.20;99.90;;;;;;4973499;28;20041;-84
2022/03/22 00:25:06;;;;;;;48.72;34.42;;;4.20;99.90;;;;;;4974721;28;20041;-85
2022/03/22 00:27:50;;;;;;;55.63;36.38;;;4.20;99.90;;;;;;4972729;28;20042;-84
2022/03/22 00:30:17;;;;;;;52.33;36.05;;;5.00;99.90;;;;;;4973946;28;20077;-85
2022/03/22 00:32:43;;;;;;;51.70;35.78;;;5.00;99.90;;;;;;4974183;28;20046;-84
2022/03/22 00:35:12;;;;;;;54.35;36.90;;;5.30;99.90;;;;;;4973083;28;20130;-84
2022/03/22 00:37:41;;;;;;;50.75;35.53;;;4.10;99.90;;;;;;4974544;28;20096;-85
2022/03/22 00:40:13;;;;;;;51.20;35.65;;;4.70;99.90;;;;;;4974233;28;20548;-85
2022/03/22 00:42:46;;;;;;;54.33;37.85;;;4.10;99.90;;;;;;4973567;28;20145;-84
2022/03/22 00:45:16;;;;;;;54.47;39.28;;;4.70;99.90;;;;;;4976727;28;20038;-85
2022/03/22 00:47:43;;;;;;;57.97;35.65;;;4.90;99.90;;;;;;4977701;28;20081;-84
2022/03/22 00:50:10;;;;;;;53.88;38.35;;;4.50;99.90;;;;;;4976836;28;20136;-83
2022/03/22 00:52:36;;;;;;;51.30;36.65;;;4.70;99.90;;;;;;4986458;28;20497;-84
2022/03/22 00:55:05;;;;;;;53.03;37.28;;;4.80;99.90;;;;;;4977514;28;20038;-84
2022/03/22 00:57:33;;;;;;;58.67;39.60;;;4.10;99.90;;;;;;4976198;28;20061;-85
2022/03/22 01:00:01;;;;;;;55.08;38.88;;;5.00;99.90;;;;;;4977513;28;20475;-84
2022/03/22 01:02:27;;;;;;;57.72;38.70;;;4.00;99.90;;;;;;4977457;28;20034;-85
2022/03/22 01:04:53;;;;;;;55.45;36.20;;;3.00;99.90;;;;;;4977073;28;20046;-84
2022/03/22 01:07:20;;;;;;;56.00;39.40;;;5.00;99.90;;;;;;4993369;28;20089;-85
2022/03/22 01:09:46;;;;;;;58.78;41.08;;;4.20;99.90;;;;;;4977174;28;20081;-86
2022/03/22 01:12:11;;;;;;;58.85;40.25;;;4.80;99.90;;;;;;4976292;28;20073;-85
2022/03/22 01:14:38;;;;;;;57.63;37.75;;;4.20;99.90;;;;;;4994268;28;20108;-84
2022/03/22 01:17:06;;;;;;;58.40;40.40;;;4.40;99.90;;;;;;4992907;28;20188;-84
2022/03/22 01:19:32;;;;;;;58.00;39.58;;;4.90;99.90;;;;;;4993519;28;20489;-84
2022/03/22 01:21:59;;;;;;;59.92;38.80;;;5.10;99.90;;;;;;4977430;28;20038;-84
2022/03/22 01:24:26;;;;;;;59.30;39.83;;;5.00;99.90;;;;;;4975822;28;20573;-85
2022/03/22 01:26:52;;;;;;;56.85;41.50;;;5.10;99.90;;;;;;4977044;28;20052;-85
2022/03/22 01:29:18;;;;;;;53.47;38.65;;;4.90;99.90;;;;;;4976103;28;20137;-84
2022/03/22 01:31:44;;;;;;;55.75;38.90;;;5.20;99.90;;;;;;4976461;28;20093;-84
2022/03/22 01:34:10;;;;;;;55.67;39.13;;;4.70;99.90;;;;;;4976898;28;20186;-83
2022/03/22 01:36:36;;;;;;;58.15;39.28;;;4.00;99.90;;;;;;4977377;28;20042;-84
2022/03/22 01:39:05;;;;;;;58.78;40.15;;;5.10;99.90;;;;;;4976551;28;20050;-85
2022/03/22 01:41:31;;;;;;;60.00;38.92;;;4.40;99.90;;;;;;4992098;28;20478;-84
2022/03/22 01:43:56;;;;;;;55.28;38.70;;;4.80;99.90;;;;;;4976473;28;20100;-85
2022/03/22 01:46:24;;;;;;;55.45;37.45;;;3.90;99.90;;;;;;4975325;28;20046;-84
2022/03/22 01:48:51;;;;;;;49.83;34.75;;;3.90;99.90;;;;;;4993743;28;20069;-84
2022/03/22 01:51:21;;;;;;;43.15;31.05;;;4.90;99.90;;;;;;4976398;28;20042;-84
2022/03/22 01:53:49;;;;;;;40.10;27.63;;;5.00;99.90;;;;;;4992291;28;20046;-84
2022/03/22 01:56:15;;;;;;;32.05;23.58;;;3.70;99.90;;;;;;4974685;28;20075;-84
2022/03/22 01:58:41;;;;;;;29.20;20.00;;;3.60;99.90;;;;;;4992199;28;20497;-83
2022/03/22 02:06:39;;;;;;;27.42;20.23;;;2.90;99.90;;;;;;4991879;28;20429;-83
2022/03/22 02:09:11;;;;;;;57.72;38.67;;;3.50;99.90;;;;;;4975802;28;20054;-84
2022/03/22 02:11:43;;;;;;;48.63;35.33;;;3.30;99.90;;;;;;4975801;28;20456;-84
2022/03/22 02:14:12;;;;;;;55.05;39.08;;;3.80;99.90;;;;;;4974984;28;20056;-84
2022/03/22 02:16:37;;;;;;;50.30;36.03;;;3.40;99.90;;;;;;4992095;28;20485;-83
2022/03/22 02:19:07;;;;;;;53.22;36.35;;;4.30;99.90;;;;;;4975735;28;20049;-84
2022/03/22 02:21:36;;;;;;;54.00;37.80;;;3.80;99.90;;;;;;4975324;28;20429;-83
2022/03/22 02:24:03;;;;;;;51.25;36.10;;;3.60;99.90;;;;;;4975859;28;20243;-84
2022/03/22 02:26:29;;;;;;;52.65;37.15;;;3.60;99.90;;;;;;4975092;28;20041;-84
2022/03/22 02:29:01;;;;;;;56.95;37.60;;;3.10;99.90;;;;;;4991145;28;20056;-84
2022/03/22 02:31:29;;;;;;;54.97;38.92;;;3.50;99.90;;;;;;4991526;28;20527;-84
2022/03/22 02:33:55;;;;;;;58.45;41.03;;;3.90;99.90;;;;;;4976431;28;20053;-84
2022/03/22 02:36:22;;;;;;;54.75;39.33;;;3.50;99.90;;;;;;4974417;28;20042;-85
2022/03/22 02:38:56;;;;;;;58.75;39.25;;;4.80;99.90;;;;;;4976366;28;20042;-85
2022/03/22 02:41:25;;;;;;;51.60;37.60;;;4.00;99.90;;;;;;4974444;28;20406;-83
2022/03/22 02:43:52;;;;;;;56.20;38.63;;;4.30;99.90;;;;;;4992479;28;20505;-84
2022/03/22 02:46:18;;;;;;;54.90;40.55;;;4.90;99.90;;;;;;4975186;28;20045;-84
2022/03/22 02:48:54;;;;;;;59.42;40.45;;;4.90;99.90;;;;;;4975483;28;20136;-84
2022/03/22 02:51:30;;;;;;;56.97;38.60;;;4.70;99.90;;;;;;4975281;28;20050;-83
2022/03/22 02:53:56;;;;;;;54.53;37.15;;;3.70;99.90;;;;;;4976209;28;20434;-84
2022/03/22 02:56:22;;;;;;;57.53;38.75;;;4.30;99.90;;;;;;4991099;28;20038;-85
2022/03/22 02:58:48;;;;;;;61.70;40.80;;;4.20;99.90;;;;;;4975646;28;20081;-85
2022/03/22 03:01:13;;;;;;;49.20;36.20;;;4.30;99.90;;;;;;4974848;28;20122;-86
2022/03/22 03:03:39;;;;;;;59.25;38.72;;;4.80;99.90;;;;;;4975526;28;20049;-84
2022/03/22 03:06:06;;;;;;;61.08;37.15;;;3.90;99.90;;;;;;4975216;28;20050;-84
2022/03/22 03:08:32;;;;;;;62.85;41.88;;;4.00;99.90;;;;;;4974755;28;20438;-84
2022/03/22 03:11:01;;;;;;;53.75;39.97;;;4.10;99.90;;;;;;4974640;28;20116;-84
2022/03/22 03:14:38;;;;;;;58.00;41.42;;;4.70;99.90;;;;;;4975535;28;20481;-84
2022/03/22 03:16:24;;;;;;;62.80;39.45;;;4.20;99.90;;;;;;4990695;28;20125;-84
2022/03/22 03:18:51;;;;;;;61.88;39.50;;;4.60;99.90;;;;;;4975897;28;20050;-85
2022/03/22 03:21:17;;;;;;;58.00;39.78;;;4.70;99.90;;;;;;4975187;28;20038;-84
2022/03/22 03:23:43;;;;;;;59.92;40.00;;;4.20;99.90;;;;;;4974612;28;20046;-84
2022/03/22 03:26:09;;;;;;;54.95;38.60;;;3.70;99.90;;;;;;4974593;28;20045;-83
2022/03/22 03:28:41;;;;;;;52.13;38.00;;;4.30;99.90;;;;;;4975018;28;20116;-84
2022/03/22 03:31:06;;;;;;;61.92;40.80;;;4.30;99.90;;;;;;4990763;28;20132;-83
2022/03/22 03:33:32;;;;;;;60.28;42.00;;;2.90;99.90;;;;;;4990600;28;20148;-83
2022/03/22 03:35:58;;;;;;;64.70;42.70;;;4.80;99.90;;;;;;4975206;28;20569;-83
2022/03/22 03:38:24;;;;;;;56.85;39.83;;;3.10;99.90;;;;;;4973656;28;20042;-83
2022/03/22 03:43:34;;;;;;;56.33;40.60;;;3.50;99.90;;;;;;4990714;28;20084;-83
2022/03/22 03:48:44;;;;;;;57.25;37.38;;;3.50;99.90;;;;;;4991051;28;20056;-84
2022/03/22 03:51:09;;;;;;;54.90;39.15;;;3.70;99.90;;;;;;4989726;28;20046;-83
2022/03/22 03:53:35;;;;;;;55.00;38.97;;;4.90;99.90;;;;;;4990460;28;20030;-83
2022/03/22 03:56:01;;;;;;;56.05;39.20;;;3.80;99.90;;;;;;4973349;28;20501;-84
2022/03/22 03:58:27;;;;;;;61.13;42.25;;;3.50;99.90;;;;;;4989103;28;20058;-83
2022/03/22 04:00:53;;;;;;;58.97;40.95;;;4.10;99.90;;;;;;4974913;28;20049;-83
2022/03/22 04:03:18;;;;;;;62.65;42.13;;;4.30;99.90;;;;;;4990151;28;20478;-83
2022/03/22 04:05:53;;;;;;;62.13;42.72;;;3.50;99.90;;;;;;4973973;28;20049;-84
2022/03/22 04:08:19;;;;;;;68.55;41.55;;;3.50;99.90;;;;;;4973637;28;20041;-84
2022/03/22 04:10:44;;;;;;;59.00;40.92;;;4.40;99.90;;;;;;4974937;28;20057;-84
2022/03/22 04:13:19;;;;;;;63.35;43.35;;;4.50;99.90;;;;;;4988150;28;20490;-85
2022/03/22 04:15:45;;;;;;;64.68;41.30;;;3.40;99.90;;;;;;4974687;28;20049;-83
2022/03/22 04:18:11;;;;;;;56.70;39.60;;;3.50;99.90;;;;;;4973795;28;20128;-84
2022/03/22 04:20:37;;;;;;;62.22;41.80;;;3.50;99.90;;;;;;4978384;28;20389;-84
2022/03/22 04:23:03;;;;;;;60.88;40.55;;;3.80;99.90;;;;;;4978070;28;20137;-84
2022/03/22 04:25:38;;;;;;;61.88;42.03;;;4.20;99.90;;;;;;4978738;28;20128;-84
2022/03/22 04:33:33;;;;;;;63.20;42.95;;;3.60;99.90;;;;;;4993825;28;20088;-84
2022/03/22 04:35:59;;;;;;;61.78;42.85;;;3.30;99.90;;;;;;4978024;28;20572;-84
2022/03/22 04:38:34;;;;;;;61.50;42.10;;;4.20;99.90;;;;;;4993525;28;20077;-84
2022/03/22 04:41:00;;;;;;;58.92;40.30;;;3.10;99.90;;;;;;4977142;28;20049;-83
2022/03/22 04:43:25;;;;;;;62.58;42.28;;;4.20;99.90;;;;;;4977865;28;20112;-83
2022/03/22 04:45:51;;;;;;;65.15;42.22;;;4.20;99.90;;;;;;4978219;28;20108;-84
2022/03/22 04:48:17;;;;;;;68.03;43.58;;;4.30;99.90;;;;;;4976428;28;20065;-85
2022/03/22 04:50:42;;;;;;;61.13;43.40;;;4.20;99.90;;;;;;4978267;28;20042;-84
2022/03/22 04:59:10;;;;;;;62.80;40.38;;;3.40;99.90;;;;;;4993407;28;20050;-84
2022/03/22 05:01:36;;;;;;;64.97;42.55;;;3.10;99.90;;;;;;4978255;28;20549;-84
2022/03/22 05:04:02;;;;;;;61.00;43.20;;;3.50;99.90;;;;;;4976257;28;20041;-84
2022/03/22 05:06:38;;;;;;;65.03;42.80;;;3.20;99.90;;;;;;4993859;28;20052;-85
2022/03/22 05:09:11;;;;;;;58.67;40.42;;;4.00;99.90;;;;;;4976291;28;20248;-84
2022/03/22 05:11:37;;;;;;;60.00;40.60;;;3.20;99.90;;;;;;4993526;28;20632;-84
2022/03/22 05:14:12;;;;;;;64.72;43.22;;;3.20;99.90;;;;;;4976674;28;20183;-84
2022/03/22 05:16:40;;;;;;;60.72;40.65;;;4.40;99.90;;;;;;4976898;28;20279;-84
2022/03/22 05:19:06;;;;;;;61.40;41.78;;;3.10;99.90;;;;;;4977334;28;20038;-84
2022/03/22 05:21:32;;;;;;;59.47;40.03;;;4.20;99.90;;;;;;4977419;28;20038;-84
2022/03/22 05:23:58;;;;;;;64.20;40.45;;;3.10;99.90;;;;;;4976944;28;20054;-84
2022/03/22 05:26:26;;;;;;;62.50;41.55;;;4.00;99.90;;;;;;4976868;28;20050;-84
2022/03/22 05:28:52;;;;;;;64.38;42.45;;;4.30;99.90;;;;;;4977070;28;20485;-84
2022/03/22 05:31:18;;;;;;;63.03;41.58;;;3.90;99.90;;;;;;4975568;28;20433;-85
2022/03/22 05:33:44;;;;;;;62.95;41.50;;;4.20;99.90;;;;;;4976942;28;20049;-84
2022/03/22 05:36:10;;;;;;;65.18;41.33;;;4.00;99.90;;;;;;4992936;28;20046;-85
2022/03/22 05:38:37;;;;;;;61.17;42.28;;;3.40;99.90;;;;;;4981972;28;20045;-84
2022/03/22 05:41:03;;;;;;;60.30;41.42;;;2.90;99.90;;;;;;4978161;28;20069;-85
2022/03/22 05:43:29;;;;;;;65.43;41.10;;;3.60;99.90;;;;;;4976970;28;20045;-85
2022/03/22 05:45:55;;;;;;;60.08;41.25;;;3.90;99.90;;;;;;4976027;28;20056;-85
2022/03/22 05:48:21;;;;;;;63.05;41.60;;;3.20;99.90;;;;;;4976990;28;20046;-85
2022/03/22 05:50:47;;;;;;;63.60;40.97;;;3.80;99.90;;;;;;4993411;28;20046;-85
2022/03/22 05:53:14;;;;;;;73.10;42.85;;;3.40;99.90;;;;;;4975722;28;20042;-85
2022/03/22 05:55:40;;;;;;;64.80;41.53;;;3.50;99.90;;;;;;4976775;28;20144;-84
2022/03/22 05:58:07;;;;;;;66.38;43.75;;;3.70;99.90;;;;;;4975175;28;20405;-85
2022/03/22 06:00:42;;;;;;;68.68;41.85;;;3.20;99.90;;;;;;4993700;28;20049;-85
2022/03/22 06:03:08;;;;;;;63.00;42.70;;;3.30;99.90;;;;;;4976795;28;20046;-85
2022/03/22 06:05:34;;;;;;;67.55;44.13;;;3.30;99.90;;;;;;4976472;28;20042;-85
2022/03/22 06:08:00;;;;;;;64.35;43.30;;;4.40;99.90;;;;;;4976606;28;20052;-86
2022/03/22 06:10:28;;;;;;;59.47;41.10;;;4.30;99.90;;;;;;4977203;28;20045;-85
2022/03/22 06:12:55;;;;;;;69.43;42.72;;;2.90;99.90;;;;;;4980154;28;20077;-85
2022/03/22 06:15:29;;;;;;;60.30;40.30;;;3.50;99.90;;;;;;4976417;28;20041;-86
2022/03/22 06:17:58;;;;;;;65.03;41.05;;;3.40;99.90;;;;;;4976772;28;20048;-86
2022/03/22 06:20:28;;;;;;;60.42;39.90;;;4.10;99.90;;;;;;4976154;28;20448;-86
2022/03/22 06:22:55;;;;;;;59.42;39.65;;;4.10;99.90;;;;;;4976606;28;20037;-86
2022/03/22 06:25:21;;;;;;;62.95;41.75;;;3.60;99.90;;;;;;4976166;28;20046;-85
2022/03/22 06:27:50;;;;;;;63.15;40.75;;;3.80;99.90;;;;;;4975357;28;20049;-86
2022/03/22 06:30:25;;;;;;;57.67;40.90;;;4.60;99.90;;;;;;4976750;28;20513;-85
2022/03/22 06:33:12;;;;;;;64.60;42.38;;;3.90;99.90;;;;;;4976890;28;20050;-86
2022/03/22 06:35:40;;;;;;;61.78;38.25;;;4.00;99.90;;;;;;4976795;28;20046;-85
2022/03/22 06:38:06;;;;;;;53.92;37.08;;;5.00;99.90;;;;;;4975390;28;20504;-84
2022/03/22 06:40:34;;;;;;;60.00;37.45;;;3.80;99.90;;;;;;4975158;28;20508;-85
2022/03/22 06:43:02;;;;;;;62.65;38.75;;;4.40;99.90;;;;;;4991385;28;20068;-85
2022/03/22 06:45:28;;;;;;;52.20;36.90;;;5.20;99.90;;;;;;4975854;28;20576;-85
2022/03/22 06:47:54;;;;;;;57.75;38.30;;;4.50;99.90;;;;;;4974954;28;20486;-85
2022/03/22 06:50:21;;;;;;;55.08;39.83;;;5.30;99.90;;;;;;4974945;28;20494;-85
2022/03/22 06:52:47;;;;;;;59.40;37.70;;;4.70;99.90;;;;;;4985888;28;20045;-85
2022/03/22 06:55:16;;;;;;;55.65;38.17;;;5.60;99.90;;;;;;4974311;28;20038;-85
2022/03/22 06:57:42;;;;;;;60.53;38.70;;;5.00;99.90;;;;;;4975097;28;20116;-85
2022/03/22 07:00:11;;;;;;;49.72;36.78;;;6.00;99.90;;;;;;4975285;28;20050;-84
2022/03/22 07:02:39;;;;;;;55.28;38.92;;;5.10;99.90;;;;;;4991304;28;20046;-86
2022/03/22 07:05:06;;;;;;;47.35;36.17;;;5.30;99.90;;;;;;4975792;28;20050;-86
2022/03/22 07:07:32;;;;;;;54.88;38.88;;;5.30;99.90;;;;;;4992172;28;20042;-86
2022/03/22 07:09:58;;;;;;;49.65;36.67;;;5.50;99.90;;;;;;4975193;28;20052;-86
2022/03/22 07:12:24;;;;;;;60.90;37.75;;;6.30;99.90;;;;;;4973756;28;20508;-86
2022/03/22 07:14:50;;;;;;;55.72;37.72;;;5.80;99.90;;;;;;4975679;28;20041;-85
2022/03/22 07:17:16;;;;;;;61.53;38.38;;;6.00;99.90;;;;;;4994120;28;20486;-86
2022/03/22 07:19:42;;;;;;;51.65;37.20;;;6.60;99.90;;;;;;5003537;28;20049;-85
2022/03/22 07:22:08;;;;;;;49.58;35.70;;;6.30;99.90;;;;;;5004226;28;20033;-86
2022/03/22 07:24:34;;;;;;;64.97;38.08;;;6.40;99.90;;;;;;4996639;28;20098;-85
2022/03/22 07:26:59;;;;;;;55.80;36.35;;;7.00;99.90;;;;;;5002819;28;20073;-88
2022/03/22 07:29:25;;;;;;;54.08;34.78;;;6.70;99.90;;;;;;5001929;28;20509;-85
2022/03/22 07:31:56;;;;;;;52.55;37.35;;;7.00;99.90;;;;;;5004146;28;20084;-84
2022/03/22 07:34:23;;;;;;;58.58;37.28;;;8.00;99.90;;;;;;4990680;28;20081;-85
2022/03/22 07:36:51;;;;;;;54.35;36.03;;;7.80;99.90;;;;;;4974527;28;20064;-86
2022/03/22 07:39:16;;;;;;;50.28;35.67;;;7.30;99.90;;;;;;4978161;28;20560;-90
2022/03/22 07:41:48;;;;;;;56.50;37.30;;;7.80;99.90;;;;;;4983330;28;20044;-85
2022/03/22 07:44:23;;;;;;;53.53;37.08;;;7.40;99.90;;;;;;4982623;28;20041;-85
2022/03/22 07:46:48;;;;;;;48.67;35.38;;;8.20;99.90;;;;;;4994543;28;20069;-84
2022/03/22 07:54:49;;;;;;;51.03;36.60;;;7.60;99.90;;;;;;5009046;28;20076;-85
2022/03/22 07:57:14;;;;;;;52.60;34.95;;;7.60;99.90;;;;;;4980574;28;20084;-86
2022/03/22 07:59:40;;;;;;;49.28;35.13;;;7.70;99.90;;;;;;4993554;28;20476;-85
2022/03/22 08:02:15;;;;;;;51.47;34.78;;;8.00;99.90;;;;;;4989201;28;20073;-86
2022/03/22 08:04:41;;;;;;;45.10;33.33;;;8.40;99.90;;;;;;4988466;28;20501;-86
2022/03/22 08:07:07;;;;;;;45.75;33.53;;;8.70;99.90;;;;;;4975415;28;20050;-86
2022/03/22 08:09:33;;;;;;;49.13;33.65;;;8.20;99.90;;;;;;4977873;28;20041;-85
2022/03/22 08:11:59;;;;;;;48.58;33.40;;;8.30;99.90;;;;;;4974498;28;20045;-85
2022/03/22 08:14:24;;;;;;;45.58;32.67;;;8.40;99.90;;;;;;4974185;28;20045;-84
2022/03/22 08:16:50;;;;;;;53.65;31.65;;;8.60;99.90;;;;;;4979617;28;20038;-84
2022/03/22 08:19:24;;;;;;;46.10;32.78;;;8.60;99.90;;;;;;4993300;28;20160;-85
2022/03/22 08:21:50;;;;;;;45.70;31.92;;;8.80;99.90;;;;;;4991364;28;20258;-87
2022/03/22 08:24:31;;;;;;;48.17;32.42;;;8.90;99.90;;;;;;4997982;28;20057;-89
2022/03/22 08:27:07;;;;;;;46.92;30.67;;;9.10;99.90;;;;;;4989442;28;20409;-91
2022/03/22 08:29:35;;;;;;;46.75;32.35;;;9.20;99.90;;;;;;4975959;28;20046;-88
2022/03/22 08:32:14;;;;;;;45.67;32.20;;;9.40;99.90;;;;;;4979945;28;20133;-90
2022/03/22 08:34:40;;;;;;;47.88;31.38;;;9.60;99.90;;;;;;4994699;28;20132;-84
2022/03/22 08:37:08;;;;;;;43.05;28.85;;;9.80;99.90;;;;;;4999951;28;20133;-85
2022/03/22 08:39:37;;;;;;;40.63;29.63;;;9.90;99.90;;;;;;5010295;28;20045;-84
2022/03/22 08:42:09;;;;;;;39.97;28.15;;;10.10;99.90;;;;;;5008364;28;20056;-86
2022/03/22 08:44:35;;;;;;;45.75;29.17;;;10.20;99.90;;;;;;4993673;28;20038;-85
2022/03/22 08:47:01;;;;;;;45.53;28.20;;;10.60;99.90;;;;;;5008428;28;20096;-85
2022/03/22 08:49:26;;;;;;;40.08;28.10;;;10.40;99.90;;;;;;5009864;28;20042;-85
2022/03/22 08:51:52;;;;;;;40.95;27.88;;;10.40;99.90;;;;;;5003246;28;20038;-85
2022/03/22 08:54:19;;;;;;;42.00;27.67;;;10.50;99.90;;;;;;4989368;28;20089;-85
2022/03/22 08:57:00;;;;;;;38.70;26.85;;;10.50;99.90;;;;;;4989969;28;20486;-85
2022/03/22 08:59:26;;;;;;;37.78;26.52;;;10.60;99.90;;;;;;4989570;28;20136;-85
2022/03/22 09:01:52;;;;;;;41.17;28.10;;;10.80;99.90;;;;;;4989696;28;20133;-85
2022/03/22 09:07:02;;;;;;;39.58;26.98;;;11.00;99.90;;;;;;4993599;28;20180;-86
2022/03/22 09:09:30;;;;;;;39.65;25.90;;;11.20;99.90;;;;;;4993026;28;20144;-86
2022/03/22 09:12:09;;;;;;;42.85;27.02;;;11.30;99.90;;;;;;4993314;28;20050;-85
2022/03/22 09:14:35;;;;;;;40.90;25.80;;;11.40;99.90;;;;;;4977900;28;20474;-85
2022/03/22 09:17:00;;;;;;;37.70;25.20;;;11.50;99.90;;;;;;4976316;28;20176;-86
2022/03/22 09:19:26;;;;;;;44.05;26.08;;;11.60;99.90;;;;;;4993518;28;20045;-86
2022/03/22 09:21:52;;;;;;;36.25;25.40;;;11.70;99.90;;;;;;4993938;28;20041;-85
2022/03/22 09:24:18;;;;;;;36.83;24.90;;;11.80;99.90;;;;;;4976156;28;20049;-85
2022/03/22 09:26:46;;;;;;;37.17;25.25;;;11.90;99.90;;;;;;4993164;28;20111;-85
2022/03/22 09:29:27;;;;;;;48.17;26.80;;;12.00;99.90;;;;;;4975110;28;20138;-84
2022/03/22 09:31:53;;;;;;;36.65;25.95;;;12.00;99.90;;;;;;4992996;28;20324;-85
2022/03/22 09:34:19;;;;;;;37.83;26.02;;;12.20;99.90;;;;;;4992883;28;20555;-85
2022/03/22 09:36:45;;;;;;;38.50;26.77;;;12.20;99.90;;;;;;4993114;28;20046;-85
2022/03/22 09:39:26;;;;;;;46.15;27.02;;;12.40;99.90;;;;;;4992535;28;20464;-86
2022/03/22 09:41:51;;;;;;;43.03;27.55;;;12.40;99.90;;;;;;4983566;28;20043;-85
2022/03/22 09:44:19;;;;;;;39.75;26.65;;;12.50;99.90;;;;;;4991652;28;20092;-85
2022/03/22 09:46:59;;;;;;;44.45;28.85;;;12.60;99.90;;;;;;4993391;28;20029;-86
2022/03/22 09:49:27;;;;;;;39.35;25.23;;;12.60;99.90;;;;;;4993190;28;20045;-86
2022/03/22 09:51:54;;;;;;;40.05;25.67;;;12.70;99.90;;;;;;4992586;28;20478;-85
2022/03/22 09:54:23;;;;;;;41.72;25.73;;;12.80;99.90;;;;;;4992904;28;20342;-86
2022/03/22 09:56:50;;;;;;;45.00;29.30;;;12.90;99.90;;;;;;4992560;28;20046;-85
2022/03/22 09:59:41;;;;;;;43.30;26.65;;;13.00;99.90;;;;;;4975228;28;20575;-85
2022/03/22 10:02:07;;;;;;;42.50;25.92;;;13.10;99.90;;;;;;4992036;28;20057;-85
2022/03/22 10:04:45;;;;;;;38.33;24.92;;;13.20;99.90;;;;;;4992853;28;20042;-85
2022/03/22 10:07:19;;;;;;;41.10;23.75;;;13.20;99.90;;;;;;4992590;28;20054;-85
2022/03/22 10:10:05;;;;;;;37.38;24.67;;;13.30;99.90;;;;;;4993185;28;20367;-85
2022/03/22 10:12:32;;;;;;;37.90;24.08;;;13.40;99.90;;;;;;4974585;28;20100;-85
2022/03/22 10:15:12;;;;;;;34.67;23.42;;;13.50;99.90;;;;;;4976602;28;20133;-85
2022/03/22 10:17:39;;;;;;;38.67;23.60;;;13.60;99.90;;;;;;4975625;28;20088;-85
2022/03/22 10:20:06;;;;;;;34.95;24.35;;;13.60;99.90;;;;;;4974751;28;20044;-85
2022/03/22 10:22:33;;;;;;;36.35;24.08;;;13.70;99.90;;;;;;4976364;28;20437;-85
2022/03/22 10:25:01;;;;;;;33.70;23.30;;;13.80;99.90;;;;;;4976186;28;20045;-86
2022/03/22 10:27:36;;;;;;;33.65;23.33;;;13.90;99.90;;;;;;4974584;28;20080;-85
2022/03/22 10:30:08;;;;;;;38.08;24.15;;;14.10;99.90;;;;;;4976051;28;20046;-84
2022/03/22 10:32:50;;;;;;;35.22;23.00;;;14.20;99.90;;;;;;4975287;28;20056;-84
2022/03/22 10:35:30;;;;;;;36.00;23.23;;;14.30;99.90;;;;;;4975783;28;20545;-85
2022/03/22 10:38:09;;;;;;;32.95;23.38;;;14.40;99.90;;;;;;4976200;28;20085;-85
2022/03/22 10:40:40;;;;;;;36.58;23.10;;;14.40;99.90;;;;;;4975222;28;20046;-86
2022/03/22 10:43:09;;;;;;;34.75;23.30;;;14.50;99.90;;;;;;4991421;28;20038;-86
2022/03/22 10:45:48;;;;;;;38.88;23.60;;;14.60;99.90;;;;;;4976367;28;20057;-86
2022/03/22 10:48:26;;;;;;;38.40;23.25;;;14.70;99.90;;;;;;4974731;28;20516;-84
2022/03/22 10:50:54;;;;;;;34.00;23.23;;;14.80;99.90;;;;;;4976215;28;20079;-86
2022/03/22 10:53:21;;;;;;;40.63;23.45;;;14.90;99.90;;;;;;4975414;28;20137;-86
2022/03/22 10:55:48;;;;;;;37.58;21.80;;;14.90;99.90;;;;;;4991843;28;20053;-87
2022/03/22 10:58:25;;;;;;;36.65;23.52;;;15.10;99.90;;;;;;4974809;28;20065;-87
2022/03/22 11:00:52;;;;;;;43.10;23.10;;;15.20;99.90;;;;;;4975632;28;20149;-87
2022/03/22 11:03:23;;;;;;;39.58;23.45;;;15.20;99.90;;;;;;4991324;28;20080;-87
2022/03/22 11:05:51;;;;;;;33.50;22.95;;;15.30;99.90;;;;;;4976261;28;20057;-87
2022/03/22 11:08:19;;;;;;;35.65;24.50;;;15.40;99.90;;;;;;4974669;28;20038;-87
2022/03/22 11:10:45;;;;;;;40.80;24.67;;;15.50;99.90;;;;;;4975881;28;20065;-88
2022/03/22 11:13:11;;;;;;;44.22;25.00;;;15.50;99.90;;;;;;4974893;28;20073;-87
2022/03/22 11:15:52;;;;;;;40.67;24.50;;;15.50;99.90;;;;;;4975212;28;20042;-88
2022/03/22 11:18:20;;;;;;;40.40;24.73;;;15.60;99.90;;;;;;4975533;28;20520;-86
2022/03/22 11:20:52;;;;;;;37.70;24.00;;;15.60;99.90;;;;;;4991916;28;20050;-86
2022/03/22 11:23:28;;;;;;;37.90;23.98;;;15.70;99.90;;;;;;4973899;28;20046;-86
2022/03/22 11:26:10;;;;;;;40.90;23.73;;;15.90;99.90;;;;;;4975502;28;20595;-79
2022/03/22 11:28:38;;;;;;;43.33;25.38;;;15.90;99.90;;;;;;5000639;28;20565;-80
2022/03/22 11:31:06;;;;;;;38.50;23.52;;;16.00;99.90;;;;;;5008523;28;20811;-81
2022/03/22 11:36:20;;;;;;;35.30;21.90;;;16.00;99.90;;;;;;5007700;28;20041;-81
2022/03/22 11:38:49;;;;;;;38.17;23.45;;;16.20;99.90;;;;;;5006207;28;20502;-82
2022/03/22 11:44:18;;;;;;;37.92;22.85;;;16.40;99.90;;;;;;4999810;28;20045;-82
2022/03/22 11:46:45;;;;;;;36.70;23.17;;;16.50;99.90;;;;;;5001289;28;20413;-83
2022/03/22 11:49:13;;;;;;;39.72;22.70;;;16.70;99.90;;;;;;5004834;28;20118;-83
2022/03/22 11:51:48;;;;;;;40.80;22.67;;;16.80;99.90;;;;;;4997884;28;20041;-82
2022/03/22 11:54:14;;;;;;;38.05;22.55;;;16.80;99.90;;;;;;4993432;28;20408;-83
2022/03/22 11:56:47;;;;;;;33.33;22.08;;;16.90;99.90;;;;;;5005343;28;20477;-82
2022/03/22 11:59:16;;;;;;;35.38;21.58;;;17.10;99.90;;;;;;4993438;28;20058;-83
2022/03/22 12:01:54;;;;;;;34.78;22.23;;;17.20;99.90;;;;;;5005743;28;20046;-82
2022/03/22 12:04:20;;;;;;;37.90;21.95;;;17.30;99.90;;;;;;4982685;28;20136;-82
2022/03/22 12:06:46;;;;;;;37.40;22.23;;;17.30;99.90;;;;;;4990282;28;20516;-83
2022/03/22 12:09:11;;;;;;;37.63;23.02;;;17.40;99.90;;;;;;4988764;28;20048;-84
2022/03/22 12:11:47;;;;;;;37.67;23.88;;;17.40;99.90;;;;;;4983437;28;20453;-85
2022/03/22 12:14:26;;;;;;;40.20;22.40;;;17.50;99.90;;;;;;4999429;28;20046;-82
2022/03/22 12:16:52;;;;;;;33.50;22.10;;;17.50;99.90;;;;;;5005985;28;20052;-81
2022/03/22 12:19:26;;;;;;;41.42;21.88;;;17.50;99.90;;;;;;4979614;28;20457;-81
2022/03/22 12:21:55;;;;;;;34.50;21.75;;;17.60;99.90;;;;;;4984522;28;20099;-81
2022/03/22 12:24:23;;;;;;;39.67;21.75;;;17.60;99.90;;;;;;4984517;28;20045;-81
2022/03/22 12:26:50;;;;;;;33.33;21.20;;;17.70;99.90;;;;;;5001728;28;20049;-81
2022/03/22 12:29:16;;;;;;;35.15;22.23;;;17.70;99.90;;;;;;4972932;28;20549;-84
2022/03/22 12:31:48;;;;;;;33.78;22.35;;;17.70;99.90;;;;;;4989596;28;20049;-81
2022/03/22 12:34:13;;;;;;;37.67;22.55;;;17.70;99.90;;;;;;4979022;28;20037;-83
2022/03/22 12:36:39;;;;;;;36.85;21.60;;;17.80;99.90;;;;;;4982018;28;20046;-81
2022/03/22 12:39:05;;;;;;;34.97;22.38;;;17.80;99.90;;;;;;4979692;28;20053;-79
2022/03/22 12:41:31;;;;;;;36.05;22.70;;;17.80;99.90;;;;;;5009019;28;20061;-82
2022/03/22 12:43:57;;;;;;;35.45;22.88;;;17.80;99.90;;;;;;4978634;28;20087;-92
2022/03/22 12:46:23;;;;;;;34.17;21.88;;;17.80;99.90;;;;;;4988167;28;20045;-79
2022/03/22 12:48:51;;;;;;;39.13;22.13;;;17.80;99.90;;;;;;4990144;28;20056;-79
2022/03/22 12:51:16;;;;;;;33.75;23.13;;;17.90;99.90;;;;;;4984464;28;20084;-80
2022/03/22 12:53:42;;;;;;;36.45;22.38;;;17.90;99.00;;;;;;4998182;28;20151;-80
2022/03/22 12:56:14;;;;;;;37.22;22.83;;;17.90;99.90;;;;;;5011960;28;20055;-79
2022/03/22 12:58:40;;;;;;;43.40;22.13;;;17.90;99.90;;;;;;4994309;28;20062;-79
2022/03/22 13:01:05;;;;;;;43.00;23.45;;;17.90;99.90;;;;;;5003870;28;20061;-79
2022/03/22 13:03:31;;;;;;;39.15;22.33;;;18.00;99.90;;;;;;4983289;28;20105;-79
2022/03/22 13:05:57;;;;;;;36.30;22.10;;;18.00;99.90;;;;;;4997115;28;20041;-79
2022/03/22 13:08:26;;;;;;;36.92;22.88;;;18.00;99.90;;;;;;4998448;28;20056;-78
2022/03/22 13:16:26;;;;;;;33.28;19.80;;;18.10;97.90;;;;;;4992637;28;20066;-79
2022/03/22 13:18:57;;;;;;;35.05;20.73;;;18.00;98.00;;;;;;5009294;28;20619;-79
2022/03/22 13:21:25;;;;;;;35.55;21.40;;;18.10;98.10;;;;;;4995587;28;20046;-79